Time;durP1;ratioP1;P1;durP2;ratioP2;P2;SDS_P1;SDS_P2;PMS_P1;PMS_P2;Temp;Humidity;BMP_temperature;BMP_pressure;BME280_temperature;BME280_humidity;BME280_pressure;Samples;Min_cycle;Max_cycle;Signal;HPM_P1;HPM_P2
2021/04/25 00:04:22;;;;;;;0.22;0.22;;;;;;;2.03;78.13;102715.22;10445407;28;20023;-68
2021/04/25 00:09:22;;;;;;;0.10;0.10;;;;;;;2.02;77.52;102712.66;10450164;28;20096;-68
2021/04/25 00:14:23;;;;;;;0.10;0.10;;;;;;;2.05;77.01;102699.41;10450421;28;20091;-68
2021/04/25 00:19:23;;;;;;;0.15;0.15;;;;;;;2.06;76.52;102701.09;10449768;28;20452;-68
2021/04/25 00:24:24;;;;;;;0.10;0.10;;;;;;;2.00;76.66;102703.97;10450098;28;20032;-69
2021/04/25 00:29:24;;;;;;;0.20;0.20;;;;;;;1.99;76.63;102702.25;10481407;28;20025;-68
2021/04/25 00:34:24;;;;;;;0.20;0.20;;;;;;;2.08;76.46;102698.44;10488233;28;20020;-68
2021/04/25 00:39:25;;;;;;;0.17;0.17;;;;;;;2.08;76.23;102695.81;10491074;28;20024;-68
2021/04/25 00:44:25;;;;;;;0.10;0.10;;;;;;;2.09;75.87;102700.13;10494311;28;20020;-68
2021/04/25 00:49:25;;;;;;;0.10;0.10;;;;;;;2.12;75.88;102685.09;10498636;28;20019;-68
2021/04/25 00:54:26;;;;;;;0.30;0.30;;;;;;;2.10;76.63;102688.72;10499396;28;20258;-68
2021/04/25 00:59:28;;;;;;;0.10;0.10;;;;;;;2.14;76.36;102677.16;10480663;28;20814;-68
2021/04/25 01:04:29;;;;;;;0.20;0.20;;;;;;;2.19;76.56;102681.31;10498927;28;20028;-68
2021/04/25 01:09:30;;;;;;;0.17;0.17;;;;;;;2.31;76.06;102684.41;10492741;28;20024;-68
2021/04/25 01:14:30;;;;;;;0.20;0.20;;;;;;;2.46;75.33;102678.53;10492879;28;20029;-68
2021/04/25 01:19:31;;;;;;;0.10;0.10;;;;;;;2.53;75.31;102673.88;10495853;28;20475;-69
2021/04/25 01:24:31;;;;;;;0.20;0.20;;;;;;;2.71;74.39;102674.00;10498961;28;20278;-68
2021/04/25 01:29:32;;;;;;;0.10;0.10;;;;;;;2.84;74.76;102678.75;10497293;28;20047;-68
2021/04/25 01:34:32;;;;;;;0.10;0.10;;;;;;;3.03;73.42;102674.41;10498239;28;20032;-68
2021/04/25 01:39:32;;;;;;;0.10;0.10;;;;;;;3.21;72.46;102678.03;10497104;28;20027;-68
2021/04/25 01:44:33;;;;;;;0.10;0.10;;;;;;;3.30;70.73;102671.53;10491736;28;20028;-68
2021/04/25 01:49:33;;;;;;;0.15;0.15;;;;;;;3.46;69.26;102676.97;10493682;28;20017;-68
2021/04/25 01:54:34;;;;;;;0.10;0.10;;;;;;;3.44;69.51;102678.81;10496349;28;20119;-68
2021/04/25 01:59:34;;;;;;;0.10;0.10;;;;;;;3.32;70.08;102674.94;10496543;28;20487;-68
2021/04/25 02:04:34;;;;;;;0.20;0.20;;;;;;;3.26;70.25;102676.06;10496583;28;20279;-68
2021/04/25 02:09:35;;;;;;;0.10;0.10;;;;;;;3.22;70.01;102661.31;10496004;28;20279;-68
2021/04/25 02:14:35;;;;;;;0.10;0.10;;;;;;;3.15;70.76;102658.09;10496730;28;20776;-68
2021/04/25 02:19:36;;;;;;;0.20;0.20;;;;;;;3.13;70.27;102656.44;10493375;28;20033;-68
2021/04/25 02:24:36;;;;;;;0.10;0.10;;;;;;;3.14;70.52;102656.41;10495880;28;20031;-68
2021/04/25 02:29:36;;;;;;;0.10;0.10;;;;;;;3.08;71.23;102658.41;10495181;28;20089;-68
2021/04/25 02:34:37;;;;;;;0.20;0.20;;;;;;;2.92;72.20;102647.69;10495749;28;20402;-68
2021/04/25 02:39:37;;;;;;;0.13;0.13;;;;;;;2.84;72.45;102644.53;10495155;28;20028;-68
2021/04/25 02:44:37;;;;;;;0.10;0.10;;;;;;;2.74;72.96;102638.81;10496022;28;20024;-68
2021/04/25 02:49:38;;;;;;;0.10;0.10;;;;;;;2.64;73.37;102638.31;10493048;28;20065;-68
2021/04/25 02:54:38;;;;;;;0.10;0.10;;;;;;;2.61;73.54;102629.69;10494837;28;20763;-68
2021/04/25 02:59:38;;;;;;;0.20;0.20;;;;;;;2.55;74.19;102635.22;10494701;28;20024;-69
2021/04/25 03:04:38;;;;;;;0.20;0.20;;;;;;;2.48;73.83;102640.72;10494455;28;20866;-68
2021/04/25 03:09:39;;;;;;;0.10;0.10;;;;;;;2.39;75.09;102642.88;10492974;28;20024;-68
2021/04/25 03:14:39;;;;;;;0.20;0.20;;;;;;;2.28;75.68;102632.78;10494269;28;20338;-68
2021/04/25 03:19:39;;;;;;;0.10;0.10;;;;;;;2.22;76.11;102630.41;10489727;28;20023;-68
2021/04/25 03:24:40;;;;;;;0.20;0.20;;;;;;;2.23;75.43;102635.56;10493276;28;20081;-68
2021/04/25 03:29:41;;;;;;;0.17;0.17;;;;;;;2.25;75.64;102636.38;10492779;28;20056;-68
2021/04/25 03:34:41;;;;;;;0.10;0.10;;;;;;;2.14;76.31;102630.69;10490078;28;20036;-68
2021/04/25 03:39:41;;;;;;;0.10;0.10;;;;;;;2.06;76.82;102631.91;10485022;28;20020;-68
2021/04/25 03:44:41;;;;;;;0.10;0.10;;;;;;;2.07;76.24;102641.53;10483566;28;20280;-68
2021/04/25 03:49:42;;;;;;;0.00;0.00;;;;;;;1.97;75.92;102643.63;10491118;28;20092;-68
2021/04/25 03:54:42;;;;;;;0.25;0.25;;;;;;;2.02;76.01;102637.28;10491297;28;20283;-68
2021/04/25 03:59:43;;;;;;;0.20;0.20;;;;;;;2.01;76.50;102642.63;10491831;28;20077;-68
2021/04/25 04:04:43;;;;;;;0.15;0.15;;;;;;;2.01;76.33;102645.25;10492528;28;20470;-68
2021/04/25 04:09:43;;;;;;;0.17;0.17;;;;;;;2.10;75.94;102654.53;10491685;28;20491;-68
2021/04/25 04:14:44;;;;;;;0.10;0.10;;;;;;;2.15;75.23;102656.09;10492315;28;20270;-68
2021/04/25 04:19:44;;;;;;;0.10;0.10;;;;;;;2.11;75.27;102657.09;10491461;28;20016;-68
2021/04/25 04:24:45;;;;;;;0.10;0.10;;;;;;;2.60;73.30;102662.19;10490909;28;20047;-68
2021/04/25 04:29:45;;;;;;;0.10;0.10;;;;;;;3.36;70.92;102677.38;10491137;28;20033;-68
2021/04/25 04:34:45;;;;;;;0.10;0.10;;;;;;;4.02;67.77;102669.13;10489198;28;20025;-69
2021/04/25 04:39:46;;;;;;;0.00;0.00;;;;;;;4.18;66.44;102660.47;10490429;28;20028;-68
2021/04/25 04:44:46;;;;;;;0.10;0.10;;;;;;;4.12;67.44;102666.06;10491743;28;20344;-68
2021/04/25 04:49:47;;;;;;;0.00;0.00;;;;;;;5.05;64.20;102657.97;10489839;28;20467;-68
2021/04/25 04:54:48;;;;;;;0.00;0.00;;;;;;;5.84;62.10;102666.97;10491571;28;20032;-68
2021/04/25 04:59:49;;;;;;;0.00;0.00;;;;;;;6.20;59.80;102665.09;10490911;28;20028;-68
2021/04/25 05:04:49;;;;;;;0.00;0.00;;;;;;;6.81;57.89;102677.47;10570655;22;20052;-68
2021/04/25 05:09:52;;;;;;;0.05;0.05;;;;;;;7.70;55.08;102678.25;10573312;28;20069;-67
2021/04/25 05:14:53;;;;;;;0.00;0.00;;;;;;;8.52;52.56;102681.94;10574645;28;20065;-68
2021/04/25 05:19:53;;;;;;;0.10;0.10;;;;;;;9.32;50.79;102681.91;10574604;28;20363;-67
2021/04/25 05:24:53;;;;;;;0.10;0.10;;;;;;;9.87;49.06;102683.34;10575626;28;20023;-68
2021/04/25 05:29:54;;;;;;;0.10;0.10;;;;;;;10.14;48.30;102692.97;10575047;28;20028;-67
2021/04/25 05:34:54;;;;;;;0.00;0.00;;;;;;;10.62;46.92;102695.72;10582054;28;20116;-67
2021/04/25 05:39:54;;;;;;;0.10;0.10;;;;;;;9.50;49.12;102699.22;10577967;28;20028;-68
2021/04/25 05:44:54;;;;;;;0.10;0.10;;;;;;;8.10;52.71;102709.41;10581331;28;20534;-69
2021/04/25 05:49:55;;;;;;;0.10;0.10;;;;;;;8.24;52.77;102705.88;10579631;28;20130;-68
2021/04/25 05:54:55;;;;;;;0.10;0.10;;;;;;;9.43;50.56;102711.25;10580765;28;20028;-68
2021/04/25 05:59:56;;;;;;;0.10;0.10;;;;;;;10.39;47.77;102706.25;10580643;28;20024;-67
2021/04/25 06:04:56;;;;;;;0.10;0.10;;;;;;;10.55;47.09;102710.44;10580755;28;20032;-67
2021/04/25 06:09:56;;;;;;;0.20;0.20;;;;;;;10.94;45.96;102714.66;10578621;28;20031;-68
2021/04/25 06:14:57;;;;;;;0.10;0.10;;;;;;;11.93;45.56;102715.94;10577101;28;20196;-67
2021/04/25 06:19:57;;;;;;;0.10;0.10;;;;;;;12.17;44.06;102719.31;10579552;28;20730;-68
2021/04/25 06:24:58;;;;;;;0.10;0.10;;;;;;;12.10;44.73;102726.13;10580127;28;20386;-68
2021/04/25 06:29:58;;;;;;;0.10;0.10;;;;;;;11.29;45.77;102722.63;10579234;28;20375;-68
2021/04/25 06:34:58;;;;;;;0.10;0.10;;;;;;;11.50;45.35;102724.59;10579373;28;20027;-68
2021/04/25 06:39:59;;;;;;;0.10;0.10;;;;;;;11.79;45.96;102725.00;10579326;28;20016;-67
2021/04/25 06:44:59;;;;;;;0.10;0.10;;;;;;;11.51;47.21;102728.97;10576365;28;20019;-67
2021/04/25 06:49:59;;;;;;;0.10;0.10;;;;;;;11.49;47.52;102745.13;10568761;28;20498;-67
2021/04/25 06:55:00;;;;;;;0.10;0.10;;;;;;;11.57;47.40;102752.50;10577337;28;20019;-68
2021/04/25 07:00:00;;;;;;;0.10;0.10;;;;;;;12.05;45.79;102757.69;10578291;28;20039;-68
2021/04/25 07:05:02;;;;;;;0.10;0.10;;;;;;;11.40;45.92;102752.97;10578454;28;20404;-67
2021/04/25 07:10:04;;;;;;;0.10;0.10;;;;;;;10.97;47.19;102759.75;10577583;28;20385;-68
2021/04/25 07:15:07;;;;;;;0.10;0.10;;;;;;;11.13;48.80;102754.09;10578049;28;20110;-68
2021/04/25 07:20:09;;;;;;;0.10;0.10;;;;;;;10.94;47.30;102770.63;10569124;28;20012;-68
2021/04/25 07:25:10;;;;;;;0.10;0.10;;;;;;;11.89;46.09;102767.88;10578163;28;20042;-68
2021/04/25 07:30:11;;;;;;;0.10;0.10;;;;;;;12.05;46.16;102775.53;10577126;28;20031;-68
2021/04/25 07:35:11;;;;;;;0.10;0.10;;;;;;;12.10;44.85;102776.00;10577345;28;20031;-68
2021/04/25 07:40:13;;;;;;;0.10;0.10;;;;;;;12.27;45.03;102775.50;10575399;28;20114;-68
2021/04/25 07:45:13;;;;;;;0.10;0.10;;;;;;;12.23;46.10;102768.72;10576967;28;20024;-68
2021/04/25 07:50:14;;;;;;;0.10;0.10;;;;;;;12.45;44.61;102781.22;10576234;28;20216;-68
2021/04/25 07:55:14;;;;;;;0.10;0.10;;;;;;;12.62;44.34;102778.03;10576218;28;20500;-68
2021/04/25 08:00:16;;;;;;;0.10;0.10;;;;;;;12.26;42.27;102789.00;10576429;28;20098;-68
2021/04/25 08:05:17;;;;;;;0.10;0.10;;;;;;;11.95;44.08;102778.91;10576790;28;20038;-68
2021/04/25 08:10:18;;;;;;;0.10;0.10;;;;;;;11.52;44.18;102782.25;10575614;28;20061;-68
2021/04/25 08:15:20;;;;;;;0.10;0.10;;;;;;;11.82;43.74;102783.50;10576457;28;20080;-68
2021/04/25 08:20:21;;;;;;;0.10;0.10;;;;;;;11.67;42.29;102790.03;10576395;28;20024;-68
2021/04/25 08:25:21;;;;;;;0.10;0.10;;;;;;;10.88;43.96;102774.59;10577721;28;20023;-68
2021/04/25 08:30:22;;;;;;;0.10;0.10;;;;;;;11.25;43.89;102787.84;10576578;28;20383;-68
2021/04/25 08:35:23;;;;;;;0.10;0.10;;;;;;;12.56;41.93;102775.84;10575996;28;20276;-68
2021/04/25 08:40:24;;;;;;;0.10;0.10;;;;;;;12.89;39.59;102784.78;10575220;28;20577;-68
2021/04/25 08:45:25;;;;;;;0.10;0.10;;;;;;;12.90;40.20;102784.63;10575533;28;20114;-68
2021/04/25 08:50:31;;;;;;;0.10;0.10;;;;;;;12.70;37.00;102790.75;10564476;28;20393;-68
2021/04/25 08:55:32;;;;;;;0.10;0.10;;;;;;;10.47;38.64;102787.41;10574523;28;20028;-68
2021/04/25 09:00:32;;;;;;;0.10;0.10;;;;;;;9.38;37.49;102787.84;10574264;28;20028;-69
2021/04/25 09:05:33;;;;;;;0.10;0.10;;;;;;;10.50;34.86;102784.53;10576863;28;20027;-68
2021/04/25 09:10:39;;;;;;;0.10;0.10;;;;;;;11.42;34.16;102780.38;10580998;28;20038;-68
2021/04/25 09:15:39;;;;;;;0.10;0.10;;;;;;;11.23;34.40;102779.13;10584104;28;20058;-68
2021/04/25 09:20:46;;;;;;;0.10;0.10;;;;;;;11.47;38.29;102786.22;10584321;27;20602;-68
2021/04/25 09:25:54;;;;;;;0.10;0.10;;;;;;;10.62;34.97;102786.34;10582779;28;20696;-68
2021/04/25 09:31:06;;;;;;;0.10;0.10;;;;;;;10.95;37.02;102787.47;10581427;28;20115;-68
2021/04/25 09:36:10;;;;;;;0.10;0.10;;;;;;;11.05;36.86;102781.34;10582120;28;20028;-68
2021/04/25 09:41:31;;;;;;;0.10;0.10;;;;;;;11.30;34.31;102785.69;10581693;28;20023;-68
2021/04/25 09:46:54;;;;;;;0.10;0.10;;;;;;;12.25;35.15;102793.50;10581580;28;20470;-68
2021/04/25 09:51:56;;;;;;;0.00;0.00;;;;;;;11.16;35.26;102788.53;10574648;28;20042;-68
2021/04/25 09:56:57;;;;;;;0.10;0.10;;;;;;;10.02;37.10;102792.38;10580960;28;20022;-69
2021/04/25 10:02:08;;;;;;;0.10;0.10;;;;;;;9.59;38.24;102798.00;10580638;28;20457;-69
2021/04/25 10:07:13;;;;;;;0.00;0.00;;;;;;;9.30;37.53;102795.50;10580566;28;20107;-69
2021/04/25 10:12:13;;;;;;;;;;;;;;;9.71;37.30;102783.84;10580368;28;20540;-69
2021/04/25 10:17:13;;;;;;;0.10;0.10;;;;;;;9.74;34.80;102788.94;10580155;28;19975;-69
2021/04/25 10:22:14;;;;;;;0.00;0.00;;;;;;;9.64;35.99;102793.22;10576623;28;20213;-69
2021/04/25 10:27:15;;;;;;;0.03;0.03;;;;;;;9.71;36.71;102789.16;10579563;28;20526;-68
2021/04/25 10:32:18;;;;;;;0.05;0.05;;;;;;;10.83;36.96;102790.09;10579595;28;20439;-68
2021/04/25 10:37:18;;;;;;;0.10;0.10;;;;;;;11.64;36.88;102782.28;10578067;28;20114;-68
2021/04/25 10:42:24;;;;;;;0.10;0.10;;;;;;;11.00;34.25;102790.66;10579386;28;20106;-68
2021/04/25 10:47:35;;;;;;;0.10;0.10;;;;;;;10.04;35.60;102793.97;10578552;28;20102;-68
2021/04/25 10:52:37;;;;;;;0.10;0.10;;;;;;;9.81;37.66;102794.72;10574593;27;20042;-69
2021/04/25 11:02:56;;;;;;;0.10;0.10;;;;;;;11.26;35.44;102786.88;10585094;22;20051;-67
2021/04/25 11:07:57;;;;;;;0.10;0.10;;;;;;;11.29;32.42;102788.47;10578436;28;20042;-68
2021/04/25 11:12:57;;;;;;;0.03;0.03;;;;;;;11.73;32.61;102774.38;10578820;28;20034;-67
2021/04/25 11:17:57;;;;;;;0.10;0.10;;;;;;;12.30;35.66;102771.75;10586975;27;20081;-67
2021/04/25 11:22:58;;;;;;;0.10;0.10;;;;;;;11.96;30.62;102763.78;10577657;28;20268;-68
2021/04/25 11:27:59;;;;;;;0.10;0.10;;;;;;;11.40;33.38;102776.97;10574638;28;20062;-68
2021/04/25 11:33:31;;;;;;;0.10;0.10;;;;;;;11.53;33.12;102775.06;10578339;28;20025;-68
2021/04/25 11:38:31;;;;;;;0.10;0.10;;;;;;;11.54;31.25;102766.09;10577439;28;20159;-68
2021/04/25 11:43:31;;;;;;;0.10;0.10;;;;;;;11.17;28.61;102765.38;10578069;28;20129;-68
2021/04/25 11:48:32;;;;;;;0.10;0.10;;;;;;;11.36;33.84;102767.50;10576947;28;20019;-68
2021/04/25 11:53:34;;;;;;;0.10;0.10;;;;;;;11.55;28.79;102757.97;10576896;28;20027;-66
2021/04/25 11:58:34;;;;;;;0.10;0.10;;;;;;;11.88;31.47;102758.19;10583760;27;20481;-67
2021/04/25 12:03:47;;;;;;;0.10;0.10;;;;;;;11.67;28.17;102758.84;10586554;27;20122;-66
2021/04/25 12:08:54;;;;;;;0.10;0.10;;;;;;;11.55;31.20;102755.31;10595729;27;20104;-67
2021/04/25 12:13:55;;;;;;;0.10;0.10;;;;;;;11.59;28.37;102755.91;10618729;27;20079;-67
2021/04/25 12:18:56;;;;;;;0.10;0.10;;;;;;;11.81;35.70;102751.56;10619433;27;20071;-67
2021/04/25 12:23:58;;;;;;;0.10;0.10;;;;;;;11.52;30.31;102746.69;10618652;28;20160;-67
2021/04/25 12:28:59;;;;;;;0.10;0.10;;;;;;;11.27;32.15;102750.38;10616829;27;20030;-67
2021/04/25 12:33:59;;;;;;;0.00;0.00;;;;;;;11.42;29.77;102743.03;10552150;28;20020;-66
2021/04/25 12:39:05;;;;;;;0.00;0.00;;;;;;;11.57;29.54;102747.16;10579751;28;20331;-66
2021/04/25 12:44:06;;;;;;;0.10;0.10;;;;;;;11.57;27.86;102741.84;10586671;27;20034;-67
2021/04/25 12:49:09;;;;;;;0.10;0.10;;;;;;;11.72;29.85;102747.78;10606404;27;20030;-67
2021/04/25 12:54:18;;;;;;;0.05;0.05;;;;;;;11.74;33.68;102751.22;10586344;28;20110;-67
2021/04/25 12:59:20;;;;;;;0.00;0.00;;;;;;;11.18;29.23;102738.59;10604283;27;20027;-68
2021/04/25 13:04:38;;;;;;;0.10;0.10;;;;;;;11.03;30.25;102742.44;10596401;27;20023;-68
2021/04/25 13:09:39;;;;;;;0.10;0.10;;;;;;;11.15;29.88;102736.16;10594571;27;20099;-67
2021/04/25 13:14:59;;;;;;;0.00;0.00;;;;;;;11.17;29.18;102738.69;10587590;27;20437;-68
2021/04/25 13:20:00;;;;;;;0.05;0.05;;;;;;;11.17;28.57;102734.25;10606563;27;20350;-68
2021/04/25 13:25:00;;;;;;;0.10;0.10;;;;;;;11.21;33.21;102742.84;10602029;27;20028;-68
2021/04/25 13:30:01;;;;;;;0.10;0.10;;;;;;;11.34;30.73;102732.94;10602838;27;20019;-68
2021/04/25 13:35:01;;;;;;;0.10;0.10;;;;;;;11.47;29.35;102725.69;10596677;27;20027;-68
2021/04/25 13:40:02;;;;;;;0.10;0.10;;;;;;;11.55;29.96;102728.63;10584572;28;20019;-68
2021/04/25 13:45:03;;;;;;;0.10;0.10;;;;;;;11.61;29.14;102721.97;10583440;28;20352;-67
2021/04/25 13:50:06;;;;;;;0.10;0.10;;;;;;;11.55;29.01;102715.28;10582169;28;20095;-68
2021/04/25 13:55:08;;;;;;;0.10;0.10;;;;;;;11.07;29.32;102709.22;10544224;28;20058;-68
2021/04/25 14:00:15;;;;;;;0.08;0.08;;;;;;;11.07;28.63;102718.06;10552605;27;20024;-68
2021/04/25 14:05:16;;;;;;;0.10;0.10;;;;;;;11.28;30.72;102712.91;10605215;27;20047;-68
2021/04/25 14:10:25;;;;;;;0.10;0.10;;;;;;;11.29;31.09;102705.78;10597168;27;20027;-68
2021/04/25 14:15:28;;;;;;;0.10;0.10;;;;;;;11.51;29.37;102713.81;10597965;27;20200;-68
2021/04/25 14:20:28;;;;;;;0.10;0.10;;;;;;;11.50;30.01;102708.59;10595582;27;20015;-68
2021/04/25 14:25:29;;;;;;;0.00;0.00;;;;;;;11.30;29.06;102713.66;10580979;28;20096;-68
2021/04/25 14:30:30;;;;;;;0.00;0.00;;;;;;;10.95;31.88;102715.50;10580429;28;20023;-67
2021/04/25 14:35:31;;;;;;;0.08;0.08;;;;;;;10.65;31.69;102709.66;10583641;27;20122;-67
2021/04/25 14:40:32;;;;;;;0.10;0.10;;;;;;;10.51;33.23;102703.66;10580007;28;20114;-67
2021/04/25 14:45:33;;;;;;;0.00;0.00;;;;;;;10.85;33.31;102699.34;10579219;27;20095;-67
2021/04/25 14:50:37;;;;;;;0.03;0.03;;;;;;;11.14;30.14;102696.25;10579621;28;20448;-67
2021/04/25 14:55:37;;;;;;;0.10;0.10;;;;;;;11.14;28.28;102690.94;10579664;28;20458;-67
2021/04/25 15:00:37;;;;;;;0.10;0.10;;;;;;;11.21;30.75;102703.69;10578949;28;20074;-67
2021/04/25 15:05:38;;;;;;;0.10;0.10;;;;;;;11.16;31.27;102692.50;10585616;27;20034;-67
2021/04/25 15:10:38;;;;;;;0.03;0.03;;;;;;;10.88;34.60;102691.97;10602013;27;20029;-67
2021/04/25 15:15:39;;;;;;;0.10;0.10;;;;;;;10.80;30.50;102688.16;10584081;27;20293;-67
2021/04/25 15:20:39;;;;;;;0.00;0.00;;;;;;;10.50;31.47;102685.94;10590633;27;20627;-67
2021/04/25 15:25:40;;;;;;;0.00;0.00;;;;;;;10.16;32.38;102693.72;10584564;27;20034;-67
2021/04/25 15:30:41;;;;;;;0.10;0.10;;;;;;;9.85;31.81;102690.59;10591946;27;20031;-67
2021/04/25 15:35:42;;;;;;;0.00;0.00;;;;;;;10.10;32.53;102686.19;10590037;27;20015;-68
2021/04/25 15:40:43;;;;;;;0.00;0.00;;;;;;;10.46;31.40;102679.16;10580066;27;20023;-68
2021/04/25 15:45:48;;;;;;;0.00;0.00;;;;;;;10.56;31.88;102681.03;10583296;27;20016;-67
2021/04/25 15:50:49;;;;;;;0.10;0.10;;;;;;;10.67;30.93;102682.03;10589717;27;20031;-66
2021/04/25 15:55:50;;;;;;;0.10;0.10;;;;;;;10.77;32.43;102675.06;10602101;27;20442;-67
2021/04/25 16:00:50;;;;;;;0.00;0.00;;;;;;;10.80;30.73;102672.16;10607420;27;20021;-67
2021/04/25 16:05:50;;;;;;;0.00;0.00;;;;;;;10.68;31.05;102663.28;10600782;27;20504;-67
2021/04/25 16:10:51;;;;;;;0.00;0.00;;;;;;;10.70;31.16;102665.81;10588095;27;20024;-67
2021/04/25 16:15:52;;;;;;;0.00;0.00;;;;;;;10.55;30.47;102666.00;10609705;27;20388;-67
2021/04/25 16:20:52;;;;;;;0.10;0.10;;;;;;;10.45;30.29;102666.81;10598408;27;20054;-67
2021/04/25 16:25:53;;;;;;;0.00;0.00;;;;;;;10.34;30.58;102672.91;10587465;27;20062;-67
2021/04/25 16:30:53;;;;;;;0.10;0.10;;;;;;;10.13;31.14;102665.50;10597119;28;20281;-67
2021/04/25 16:35:54;;;;;;;0.00;0.00;;;;;;;9.82;30.79;102672.16;10605100;27;20481;-68
2021/04/25 16:40:54;;;;;;;0.00;0.00;;;;;;;9.69;33.86;102671.34;10586243;28;20038;-67
2021/04/25 16:45:54;;;;;;;0.00;0.00;;;;;;;9.65;31.37;102660.06;10594953;28;20015;-67
2021/04/25 16:50:55;;;;;;;0.00;0.00;;;;;;;9.63;30.91;102661.13;10603940;27;20284;-67
2021/04/25 16:55:55;;;;;;;0.00;0.00;;;;;;;9.61;32.51;102658.59;10585195;27;20327;-67
2021/04/25 17:00:55;;;;;;;0.00;0.00;;;;;;;9.48;42.62;102669.25;10575592;28;20190;-67
2021/04/25 17:05:56;;;;;;;0.00;0.00;;;;;;;9.32;45.24;102671.25;10596257;28;20284;-67
2021/04/25 17:10:57;;;;;;;0.00;0.00;;;;;;;9.24;47.43;102660.28;10579448;27;20470;-67
2021/04/25 17:15:57;;;;;;;0.10;0.10;;;;;;;9.15;45.83;102675.06;10576845;28;20033;-67
2021/04/25 17:20:58;;;;;;;0.00;0.00;;;;;;;9.09;46.32;102667.50;10597426;28;20389;-68
2021/04/25 17:25:59;;;;;;;0.00;0.00;;;;;;;9.03;46.50;102665.28;10595993;28;20032;-67
2021/04/25 17:31:00;;;;;;;0.00;0.00;;;;;;;8.94;47.32;102671.22;10608339;27;20080;-67
2021/04/25 17:36:00;;;;;;;0.00;0.00;;;;;;;8.90;48.44;102670.59;10596897;27;20023;-67
2021/04/25 17:41:00;;;;;;;0.00;0.00;;;;;;;8.81;48.64;102660.53;10596661;27;20019;-66
2021/04/25 17:46:01;;;;;;;0.10;0.10;;;;;;;8.75;48.39;102660.94;10643137;22;20670;-68
2021/04/25 17:51:01;;;;;;;0.10;0.10;;;;;;;8.57;49.12;102674.50;10615268;27;20070;-68
2021/04/25 17:56:01;;;;;;;0.00;0.00;;;;;;;8.40;48.47;102672.09;10619767;27;20397;-69
2021/04/25 18:01:02;;;;;;;0.00;0.00;;;;;;;8.23;49.26;102673.19;10609105;27;20114;-68
2021/04/25 18:06:05;;;;;;;0.03;0.03;;;;;;;8.08;49.84;102679.44;10588307;27;20325;-68
2021/04/25 18:11:06;;;;;;;0.03;0.03;;;;;;;7.93;49.58;102674.16;10580980;27;20027;-68
2021/04/25 18:16:07;;;;;;;0.00;0.00;;;;;;;7.80;50.97;102672.41;10596407;27;20035;-69
2021/04/25 18:21:08;;;;;;;0.00;0.00;;;;;;;7.70;49.83;102664.13;10572425;27;20026;-69
2021/04/25 18:26:08;;;;;;;0.00;0.00;;;;;;;7.59;51.00;102678.09;10580022;28;20597;-70
2021/04/25 18:31:09;;;;;;;0.00;0.00;;;;;;;7.45;51.47;102683.38;10578874;28;20100;-70
2021/04/25 18:36:09;;;;;;;0.00;0.00;;;;;;;7.30;51.71;102684.28;10579139;28;20031;-70
2021/04/25 18:41:09;;;;;;;0.00;0.00;;;;;;;7.14;53.04;102674.59;10578401;28;20019;-69
2021/04/25 18:46:09;;;;;;;0.00;0.00;;;;;;;7.00;51.89;102685.16;10570260;28;20266;-69
2021/04/25 18:51:10;;;;;;;0.00;0.00;;;;;;;6.88;51.81;102689.41;10578545;27;20029;-68
2021/04/25 18:56:12;;;;;;;0.00;0.00;;;;;;;6.77;53.47;102694.47;10585899;27;20492;-69
2021/04/25 19:01:18;;;;;;;0.00;0.00;;;;;;;6.63;53.19;102697.03;10593653;27;20022;-68
2021/04/25 19:06:19;;;;;;;0.00;0.00;;;;;;;6.53;51.59;102704.66;10582213;27;20019;-69
2021/04/25 19:11:20;;;;;;;0.10;0.10;;;;;;;6.50;51.58;102696.91;10593201;27;20431;-69
2021/04/25 19:16:20;;;;;;;0.00;0.00;;;;;;;6.41;51.94;102703.56;10596959;27;20021;-68
2021/04/25 19:21:21;;;;;;;0.00;0.00;;;;;;;6.29;52.45;102699.81;10577053;28;20020;-68
2021/04/25 19:26:21;;;;;;;0.00;0.00;;;;;;;6.18;52.87;102704.00;10568603;28;20027;-67
2021/04/25 19:31:22;;;;;;;0.00;0.00;;;;;;;6.02;52.59;102714.53;10576487;28;20033;-68
2021/04/25 19:36:22;;;;;;;0.00;0.00;;;;;;;5.88;51.94;102713.50;10577775;28;20020;-68
2021/04/25 19:41:23;;;;;;;0.00;0.00;;;;;;;5.69;52.46;102712.75;10576095;28;20023;-67
2021/04/25 19:46:23;;;;;;;0.00;0.00;;;;;;;5.51;54.24;102703.16;10576872;28;20030;-67
2021/04/25 19:51:24;;;;;;;0.00;0.00;;;;;;;5.33;55.35;102708.47;10576058;28;20023;-68
2021/04/25 19:56:24;;;;;;;0.00;0.00;;;;;;;5.24;54.97;102705.44;10576028;28;20015;-69
2021/04/25 20:01:24;;;;;;;0.00;0.00;;;;;;;5.16;55.34;102690.81;10576019;28;20023;-69
2021/04/25 20:06:25;;;;;;;0.00;0.00;;;;;;;5.08;56.78;102694.78;10576384;28;20382;-69
2021/04/25 20:11:26;;;;;;;0.00;0.00;;;;;;;5.01;57.12;102698.69;10566984;28;20073;-69
2021/04/25 20:16:27;;;;;;;0.00;0.00;;;;;;;4.91;58.49;102687.72;10577466;28;20506;-68
2021/04/25 20:21:28;;;;;;;0.00;0.00;;;;;;;4.78;58.28;102684.00;10597327;27;20019;-69
2021/04/25 20:26:28;;;;;;;0.00;0.00;;;;;;;4.67;58.12;102679.22;10602485;28;20023;-69
2021/04/25 20:31:28;;;;;;;0.00;0.00;;;;;;;4.50;57.83;102678.25;10609705;28;20264;-70
2021/04/25 20:36:28;;;;;;;0.00;0.00;;;;;;;4.30;59.34;102678.34;10581491;27;20269;-69
2021/04/25 20:41:29;;;;;;;0.00;0.00;;;;;;;4.15;61.23;102685.22;10574338;28;20273;-69
2021/04/25 20:46:29;;;;;;;0.00;0.00;;;;;;;4.04;61.89;102679.59;10578491;28;20043;-68
2021/04/25 20:51:30;;;;;;;0.10;0.10;;;;;;;3.94;62.88;102683.59;10597961;27;20023;-68
2021/04/25 20:56:31;;;;;;;0.00;0.00;;;;;;;3.81;64.16;102678.00;10582712;28;20636;-69
2021/04/25 21:01:31;;;;;;;0.00;0.00;;;;;;;3.73;63.10;102672.25;10595545;27;20023;-68
2021/04/25 21:06:31;;;;;;;0.00;0.00;;;;;;;3.65;62.75;102675.22;10611130;27;20429;-68
2021/04/25 21:11:32;;;;;;;0.00;0.00;;;;;;;3.61;63.59;102671.88;10599161;27;20023;-68
2021/04/25 21:16:33;;;;;;;0.10;0.10;;;;;;;3.54;64.03;102677.47;10610936;27;20386;-68
2021/04/25 21:21:33;;;;;;;0.00;0.00;;;;;;;3.45;63.57;102670.84;10594305;27;20020;-68
2021/04/25 21:26:34;;;;;;;0.10;0.10;;;;;;;3.38;64.28;102672.03;10581031;28;20035;-68
2021/04/25 21:31:35;;;;;;;0.00;0.00;;;;;;;3.32;64.61;102669.69;10582094;28;20020;-67
2021/04/25 21:36:36;;;;;;;0.10;0.10;;;;;;;3.23;65.02;102672.69;10580788;28;20253;-68
2021/04/25 21:41:37;;;;;;;0.10;0.10;;;;;;;3.14;64.44;102666.94;10565938;27;20234;-68
2021/04/25 21:46:38;;;;;;;0.00;0.00;;;;;;;3.13;63.22;102659.94;10576997;27;20080;-68
2021/04/25 21:51:38;;;;;;;0.10;0.10;;;;;;;3.08;61.76;102654.00;10581491;27;20035;-68
2021/04/25 21:56:39;;;;;;;0.10;0.10;;;;;;;3.03;61.50;102663.91;10568950;27;20081;-68
2021/04/25 22:01:39;;;;;;;0.00;0.00;;;;;;;2.99;60.94;102662.28;10590658;27;20024;-68
2021/04/25 22:06:39;;;;;;;0.20;0.20;;;;;;;2.95;61.09;102653.69;10589105;27;20019;-68
2021/04/25 22:11:41;;;;;;;0.10;0.10;;;;;;;2.88;61.22;102654.88;10601784;27;20088;-68
2021/04/25 22:16:41;;;;;;;0.10;0.10;;;;;;;2.82;61.31;102654.25;10599081;27;20080;-67
2021/04/25 22:21:41;;;;;;;0.10;0.10;;;;;;;2.78;61.57;102652.69;10587183;27;20095;-67
2021/04/25 22:26:42;;;;;;;0.10;0.10;;;;;;;2.70;61.82;102651.19;10595602;27;20115;-66
2021/04/25 22:31:42;;;;;;;0.10;0.10;;;;;;;2.58;62.19;102646.44;10579636;27;20034;-68
2021/04/25 22:36:42;;;;;;;0.00;0.00;;;;;;;2.55;62.56;102641.31;10579419;28;20016;-67
2021/04/25 22:41:42;;;;;;;0.10;0.10;;;;;;;2.54;62.67;102655.41;10579250;28;20034;-68
2021/04/25 22:46:43;;;;;;;0.10;0.10;;;;;;;2.53;62.46;102645.81;10579335;28;20794;-67
2021/04/25 22:51:44;;;;;;;0.00;0.00;;;;;;;2.50;62.71;102645.91;10579267;28;20031;-68
2021/04/25 22:56:45;;;;;;;0.00;0.00;;;;;;;2.52;62.49;102649.34;10578653;28;20023;-68
2021/04/25 23:01:46;;;;;;;0.10;0.10;;;;;;;2.46;62.95;102647.81;10578875;28;20340;-68
2021/04/25 23:06:46;;;;;;;0.10;0.10;;;;;;;2.35;63.53;102643.91;10578507;28;20390;-68
2021/04/25 23:11:46;;;;;;;0.10;0.10;;;;;;;2.25;64.18;102640.78;10578666;28;20107;-68
2021/04/25 23:16:47;;;;;;;0.20;0.20;;;;;;;2.17;64.17;102632.34;10578557;28;20028;-68
2021/04/25 23:21:47;;;;;;;0.10;0.10;;;;;;;2.06;64.81;102634.53;10576916;28;20019;-68